Time;durP1;ratioP1;P1;durP2;ratioP2;P2;SDS_P1;SDS_P2;PMS_P1;PMS_P2;Temp;Humidity;BMP_temperature;BMP_pressure;BME280_temperature;BME280_humidity;BME280_pressure;Samples;Min_cycle;Max_cycle;Signal;HPM_P1;HPM_P2
2023/03/29 05:48:53;;;;;;;;;;;;;;;;;;;;;
2023/03/29 05:52:18;;;;;;;1.73;1.63;;;;;;;5.65;72.77;95693.06;5900145;24;20661;-85
2023/03/29 05:55:44;;;;;;;;;;;;;;;;;;;;;
2023/03/29 06:06:41;;;;;;;3.33;1.80;;;;;;;5.81;72.79;95685.00;6047525;23;20271;-82
2023/03/29 06:29:45;;;;;;;19.57;13.77;;;;;;;6.84;71.04;95708.09;5930867;24;20275;-83
2023/03/29 06:33:00;;;;;;;;;;;;;;;;;;;;;
2023/03/29 06:36:07;;;;;;;34.33;20.93;;;;;;;7.04;70.91;95709.91;5873483;24;20536;-83
2023/03/29 06:42:56;;;;;;;;;;;;;;;;;;;;;
2023/03/29 06:53:14;;;;;;;3.70;1.80;;;;;;;7.26;68.17;95709.03;5849689;24;20747;-83
2023/03/29 07:07:42;;;;;;;5.17;2.10;;;;;;;8.03;66.96;95711.31;6011470;23;20888;-83
2023/03/29 07:10:18;;;;;;;1.67;1.53;;;;;;;8.06;66.57;95713.66;5949698;23;20189;-83
2023/03/29 07:44:28;;;;;;;3.30;2.17;;;;;;;8.85;65.59;95744.94;5742822;25;20184;-84
2023/03/29 08:00:44;;;;;;;2.43;2.17;;;;;;;9.50;63.19;95749.53;6041911;23;20265;-85
2023/03/29 08:04:20;;;;;;;2.80;1.70;;;;;;;9.31;63.28;95758.13;5992680;23;20166;-83
2023/03/29 08:06:56;;;;;;;4.47;2.70;;;;;;;9.46;63.25;95744.78;6040224;23;20186;-82
2023/03/29 08:09:30;;;;;;;4.53;3.07;;;;;;;9.51;62.55;95745.16;5992397;23;20182;-85
2023/03/29 08:11:57;;;;;;;3.33;2.80;;;;;;;9.43;63.41;95743.25;6016035;23;20158;-85
2023/03/29 08:14:31;;;;;;;3.30;2.60;;;;;;;9.65;62.44;95752.53;6016403;23;20166;-84
2023/03/29 08:20:51;;;;;;;2.47;2.10;;;;;;;9.46;61.61;95747.38;5928369;24;20291;-86
2023/03/29 08:30:25;;;;;;;11.73;8.00;;;;;;;9.99;60.89;95750.34;6067016;23;20263;-83
2023/03/29 08:33:11;;;;;;;19.83;14.53;;;;;;;10.24;60.65;95748.13;6069022;23;20157;-85
2023/03/29 08:36:11;;;;;;;11.07;8.93;;;;;;;10.17;61.30;95751.25;6022126;23;20161;-84
2023/03/29 08:38:49;;;;;;;4.20;3.03;;;;;;;10.33;58.65;95755.06;6055734;23;20499;-84
2023/03/29 08:45:20;;;;;;;3.20;2.90;;;;;;;10.49;59.43;95742.31;6098525;23;20164;-82
2023/03/29 08:48:11;;;;;;;3.30;2.70;;;;;;;10.73;58.96;95741.81;6036914;23;20185;-82
2023/03/29 08:51:12;;;;;;;3.33;2.07;;;;;;;10.82;59.31;95745.31;6013563;23;20598;-84
2023/03/29 08:57:19;;;;;;;6.70;5.90;;;;;;;11.24;58.25;95737.84;6024144;23;20299;-84
2023/03/29 08:59:54;;;;;;;3.50;3.17;;;;;;;11.22;56.53;95739.75;6010435;23;20186;-85
2023/03/29 09:02:50;;;;;;;13.80;8.90;;;;;;;11.62;55.92;95745.34;6011029;23;20197;-84
2023/03/29 09:05:34;;;;;;;3.80;2.70;;;;;;;11.41;55.68;95731.84;6006306;23;20214;-83
2023/03/29 09:08:20;;;;;;;7.03;5.40;;;;;;;11.53;55.96;95735.03;6037347;23;20202;-86
2023/03/29 09:11:23;;;;;;;4.73;3.00;;;;;;;11.48;55.83;95737.25;6014075;23;20158;-84
2023/03/29 09:21:36;;;;;;;4.43;2.30;;;;;;;12.07;53.69;95720.19;6063371;23;20208;-86
2023/03/29 09:33:02;;;;;;;3.87;1.97;;;;;;;12.63;54.10;95730.16;6058756;23;20211;-84
2023/03/29 09:38:36;;;;;;;2.00;1.60;;;;;;;12.76;53.17;95740.13;6025505;23;20519;-82
2023/03/29 09:41:28;;;;;;;4.23;1.93;;;;;;;12.97;53.53;95739.72;6032121;23;20536;-85
2023/03/29 09:43:56;;;;;;;3.67;1.50;;;;;;;13.11;52.72;95733.91;5984033;23;20173;-85
2023/03/29 09:46:36;;;;;;;3.20;1.57;;;;;;;12.78;52.07;95735.56;6007300;23;20222;-85
2023/03/29 09:49:45;;;;;;;2.87;1.70;;;;;;;12.85;51.62;95730.56;6031185;23;20708;-85
2023/03/29 09:52:51;;;;;;;4.00;1.77;;;;;;;13.45;49.08;95726.03;5987043;23;20169;-85
2023/03/29 09:59:04;;;;;;;14.13;9.60;;;;;;;13.82;49.71;95720.34;6008886;23;20247;-84
2023/03/29 10:01:48;;;;;;;11.87;5.60;;;;;;;13.81;49.14;95721.34;5984167;23;20250;-83
2023/03/29 10:04:54;;;;;;;9.17;4.43;;;;;;;14.16;48.52;95727.19;6008213;23;20231;-86
2023/03/29 10:07:24;;;;;;;11.40;8.80;;;;;;;14.37;48.02;95724.84;5947980;24;20169;-85
2023/03/29 10:10:03;;;;;;;15.10;10.93;;;;;;;14.68;48.53;95722.38;5907976;24;20225;-85
2023/03/29 10:12:58;;;;;;;7.90;5.80;;;;;;;14.59;47.83;95726.00;5905619;24;20167;-86
2023/03/29 10:16:06;;;;;;;10.77;8.23;;;;;;;14.63;46.72;95726.47;5915527;23;20167;-85
2023/03/29 10:18:49;;;;;;;3.60;2.80;;;;;;;14.39;46.93;95717.66;5875466;24;20211;-86
2023/03/29 10:21:40;;;;;;;22.90;18.47;;;;;;;14.52;46.46;95721.59;5921102;24;20189;-85
2023/03/29 10:24:18;;;;;;;9.63;6.33;;;;;;;14.68;45.24;95716.34;5897661;24;20181;-85
2023/03/29 10:27:04;;;;;;;20.03;18.07;;;;;;;14.84;45.71;95710.19;5922280;24;20176;-85
2023/03/29 10:29:59;;;;;;;10.07;8.57;;;;;;;14.79;44.68;95709.91;5920983;24;20190;-84
2023/03/29 10:32:40;;;;;;;3.77;2.40;;;;;;;14.69;43.66;95710.94;5919046;24;20579;-86
2023/03/29 10:35:44;;;;;;;3.80;3.10;;;;;;;15.16;44.86;95707.44;5899987;24;20180;-85
2023/03/29 10:38:26;;;;;;;10.27;9.27;;;;;;;15.04;44.23;95700.16;5899963;24;20636;-83
2023/03/29 10:41:14;;;;;;;3.97;2.70;;;;;;;15.00;44.75;95699.69;5938767;24;20565;-84
2023/03/29 10:53:33;;;;;;;3.60;3.30;;;;;;;15.02;42.44;95688.09;6075039;23;20173;-85
2023/03/29 10:56:59;;;;;;;7.67;1.93;;;;;;;15.41;43.02;95692.41;6046162;23;20170;-85
2023/03/29 11:00:00;;;;;;;4.77;1.40;;;;;;;15.29;41.88;95681.56;6007095;23;20475;-86
2023/03/29 11:03:25;;;;;;;4.10;1.30;;;;;;;15.33;41.82;95678.56;5965448;23;20186;-85
2023/03/29 11:06:50;;;;;;;;;;;;;;;;;;;;;
2023/03/29 11:27:13;;;;;;;;;;;;;;;;;;;;;
2023/03/29 11:30:47;;;;;;;;;;;;;;;;;;;;;
2023/03/29 11:40:23;;;;;;;1.63;1.07;;;;;;;14.57;40.75;95680.09;6030088;23;20240;-84
2023/03/29 11:48:00;;;;;;;2.47;1.77;;;;;;;15.26;40.77;95681.06;6014107;23;20235;-85
2023/03/29 11:54:43;;;;;;;;;;;;;;;;;;;;;
2023/03/29 12:02:52;;;;;;;2.17;1.20;;;;;;;14.81;41.14;95682.63;6075898;23;20201;-81
2023/03/29 12:05:21;;;;;;;4.77;1.80;;;;;;;14.61;42.14;95679.59;6049446;23;20183;-81
2023/03/29 12:07:53;;;;;;;1.73;1.23;;;;;;;15.07;41.73;95668.44;6031201;23;20621;-81
2023/03/29 12:10:22;;;;;;;2.67;1.17;;;;;;;15.11;41.77;95678.41;6080171;23;20152;-81
2023/03/29 12:13:21;;;;;;;2.93;1.57;;;;;;;14.79;41.83;95686.38;6078383;23;20220;-81
2023/03/29 12:16:04;;;;;;;4.23;1.40;;;;;;;14.87;41.94;95676.72;6042608;23;20170;-80
2023/03/29 12:18:34;;;;;;;4.03;1.27;;;;;;;14.83;41.53;95690.28;6041196;23;20182;-81
2023/03/29 12:21:02;;;;;;;1.50;1.20;;;;;;;14.88;41.91;95680.94;6017684;23;20184;-81
2023/03/29 12:23:31;;;;;;;2.73;1.20;;;;;;;14.82;41.92;95679.00;6017694;23;20162;-81
2023/03/29 12:26:15;;;;;;;2.07;1.27;;;;;;;14.83;43.29;95678.03;6040272;23;20165;-81
2023/03/29 12:29:06;;;;;;;1.53;1.20;;;;;;;14.83;43.99;95667.56;6041898;23;20186;-80
2023/03/29 12:32:19;;;;;;;2.60;1.43;;;;;;;14.71;43.08;95668.94;6043341;23;20154;-81
2023/03/29 12:35:04;;;;;;;4.40;1.57;;;;;;;14.49;44.72;95669.66;6040774;23;20787;-81
2023/03/29 12:37:53;;;;;;;2.77;1.63;;;;;;;14.67;44.47;95668.47;6017734;23;20154;-80
2023/03/29 12:40:20;;;;;;;2.73;1.50;;;;;;;14.14;45.47;95676.94;6041754;23;20514;-80
2023/03/29 12:43:05;;;;;;;2.20;1.37;;;;;;;14.06;46.37;95671.72;6016855;23;20174;-80
2023/03/29 12:45:35;;;;;;;2.97;1.27;;;;;;;13.84;47.28;95676.63;6017235;23;20186;-80
2023/03/29 12:48:00;;;;;;;4.20;2.00;;;;;;;14.18;47.15;95679.03;6017578;23;20585;-80
2023/03/29 12:50:32;;;;;;;5.57;2.00;;;;;;;14.07;47.83;95675.97;6022496;23;20170;-81
2023/03/29 12:53:03;;;;;;;3.13;1.60;;;;;;;14.15;48.41;95684.59;6074862;23;20152;-80
2023/03/29 12:55:32;;;;;;;4.87;1.47;;;;;;;14.20;48.23;95678.84;6076436;23;20223;-80
2023/03/29 13:53:29;;;;;;;2.57;1.77;;;;;;;14.14;52.04;95651.63;6071534;23;20290;-85
2023/03/29 13:55:56;;;;;;;2.20;1.70;;;;;;;14.19;51.18;95648.50;5929884;24;20200;-84
2023/03/29 13:58:31;;;;;;;4.17;2.07;;;;;;;14.36;51.38;95655.31;6035166;23;20247;-83
2023/03/29 14:01:08;;;;;;;3.27;1.80;;;;;;;14.28;49.50;95644.88;6048278;23;20172;-84
2023/03/29 14:03:41;;;;;;;3.17;2.03;;;;;;;14.16;49.33;95638.41;6096460;23;20228;-84
2023/03/29 14:06:08;;;;;;;5.77;1.67;;;;;;;14.10;49.43;95634.66;6068083;23;20156;-86
2023/03/29 14:08:38;;;;;;;3.37;1.80;;;;;;;14.49;49.03;95633.06;6065375;23;20267;-85
2023/03/29 14:11:06;;;;;;;3.53;1.43;;;;;;;14.76;48.80;95630.03;6050442;23;20176;-85
2023/03/29 14:13:32;;;;;;;2.93;1.60;;;;;;;14.50;49.20;95630.31;6099289;23;20156;-84
2023/03/29 14:16:03;;;;;;;3.27;1.50;;;;;;;14.98;48.56;95621.41;6074790;23;20607;-84
2023/03/29 14:18:35;;;;;;;5.43;1.53;;;;;;;15.09;46.44;95617.56;6074937;23;20180;-85
2023/03/29 14:21:01;;;;;;;4.70;1.60;;;;;;;15.55;46.58;95607.94;6050000;23;20189;-85
2023/03/29 14:23:29;;;;;;;4.37;1.50;;;;;;;15.91;46.28;95614.34;6074152;23;20500;-85
2023/03/29 14:26:04;;;;;;;3.73;1.73;;;;;;;16.07;45.54;95622.00;6098003;23;20164;-83
2023/03/29 14:28:29;;;;;;;4.38;2.67;;;;;;;15.45;45.09;95620.41;6073503;23;20183;-81
2023/03/29 14:30:55;;;;;;;8.27;4.80;;;;;;;15.76;45.96;95614.31;6073994;23;20501;-82
2023/03/29 14:33:29;;;;;;;6.77;4.53;;;;;;;15.82;45.41;95613.59;6072863;23;20168;-81
2023/03/29 14:35:56;;;;;;;4.17;2.37;;;;;;;15.58;44.82;95609.38;6048030;23;20489;-81
2023/03/29 14:38:22;;;;;;;3.57;1.50;;;;;;;14.99;45.38;95609.94;6072644;23;20169;-82
2023/03/29 14:40:48;;;;;;;3.77;1.40;;;;;;;15.21;45.46;95607.53;6048964;23;20227;-80
2023/03/29 14:43:17;;;;;;;2.60;1.40;;;;;;;15.33;46.20;95598.28;6098108;23;20489;-81
2023/03/29 14:45:43;;;;;;;4.40;1.40;;;;;;;15.74;45.97;95600.59;6096456;23;20247;-81
2023/03/29 14:48:11;;;;;;;2.33;1.10;;;;;;;15.64;45.00;95602.66;6048575;23;20180;-82
2023/03/29 14:50:36;;;;;;;4.00;1.43;;;;;;;15.84;45.06;95593.28;6072904;23;20161;-82
2023/03/29 14:53:02;;;;;;;3.97;2.20;;;;;;;15.69;45.24;95595.06;6085998;23;20223;-81
2023/03/29 14:55:29;;;;;;;2.23;1.40;;;;;;;16.05;45.61;95596.00;6097712;23;20161;-80
2023/03/29 14:57:55;;;;;;;6.80;3.30;;;;;;;15.86;44.98;95591.31;6098372;23;20188;-81
2023/03/29 15:00:37;;;;;;;3.05;1.50;;;;;;;16.14;45.08;95588.88;6121685;23;20172;-81
2023/03/29 15:03:03;;;;;;;4.68;1.65;;;;;;;16.49;44.57;95584.69;6073708;23;20247;-81
2023/03/29 15:05:35;;;;;;;3.13;2.13;;;;;;;16.41;43.92;95579.56;6073589;23;20179;-81
2023/03/29 15:08:02;;;;;;;3.67;1.98;;;;;;;16.65;44.62;95575.81;6050842;23;20259;-81
2023/03/29 15:10:30;;;;;;;1.63;1.52;;;;;;;16.51;44.72;95572.22;6075596;23;20655;-81
2023/03/29 15:12:56;;;;;;;3.45;1.70;;;;;;;16.60;43.91;95572.91;6075623;23;20247;-86
2023/03/29 15:15:22;;;;;;;3.38;1.88;;;;;;;16.28;45.50;95574.16;6075796;23;20248;-85
2023/03/29 15:17:48;;;;;;;5.50;1.80;;;;;;;16.24;46.80;95567.63;6052823;23;20180;-86
2023/03/29 15:20:23;;;;;;;3.80;1.92;;;;;;;16.34;46.86;95566.38;6076955;23;20502;-85
2023/03/29 15:23:00;;;;;;;2.50;1.20;;;;;;;16.25;47.47;95564.84;6102437;23;20211;-85
2023/03/29 15:25:36;;;;;;;2.55;1.23;;;;;;;16.33;47.20;95561.31;6053331;23;20637;-85
2023/03/29 15:28:02;;;;;;;4.28;1.17;;;;;;;16.15;47.18;95554.63;6082132;23;20523;-84
2023/03/29 15:30:34;;;;;;;2.85;1.67;;;;;;;16.37;47.90;95552.09;6078398;23;20165;-84
2023/03/29 15:33:20;;;;;;;5.50;2.13;;;;;;;16.34;48.71;95549.81;6049574;23;20165;-85
2023/03/29 15:35:50;;;;;;;4.65;1.50;;;;;;;16.51;48.22;95546.00;6076653;23;20183;-83
2023/03/29 15:38:16;;;;;;;4.35;1.05;;;;;;;16.40;48.92;95546.47;6075767;23;20184;-84
2023/03/29 15:40:41;;;;;;;4.57;1.38;;;;;;;16.18;49.13;95547.44;6076839;23;20216;-84
2023/03/29 15:43:06;;;;;;;12.35;5.88;;;;;;;16.19;49.25;95554.28;6076946;23;20288;-84
2023/03/29 15:45:32;;;;;;;9.82;6.10;;;;;;;16.34;50.29;95557.69;6074864;23;20164;-82
2023/03/29 15:48:00;;;;;;;4.35;2.33;;;;;;;16.02;49.34;95564.13;6075427;23;20215;-83
2023/03/29 15:50:26;;;;;;;4.90;2.80;;;;;;;15.92;49.24;95558.34;6074733;23;20237;-83
2023/03/29 15:52:54;;;;;;;2.50;2.17;;;;;;;15.99;49.12;95560.06;6071946;23;20674;-84
2023/03/29 15:55:25;;;;;;;3.97;1.23;;;;;;;15.81;49.17;95559.59;6049470;23;20749;-84
2023/03/29 15:57:52;;;;;;;3.67;1.13;;;;;;;15.66;49.16;95559.59;6097762;23;20192;-84
2023/03/29 16:00:35;;;;;;;5.32;2.40;;;;;;;15.59;48.16;95554.22;6069464;23;20168;-86
2023/03/29 16:03:26;;;;;;;6.70;2.42;;;;;;;15.56;48.26;95551.16;6074994;23;20152;-86
2023/03/29 16:05:57;;;;;;;8.60;1.90;;;;;;;15.44;47.78;95542.91;6050687;23;20165;-86
2023/03/29 16:08:31;;;;;;;5.10;3.73;;;;;;;15.53;48.58;95541.84;6046710;23;20184;-86
2023/03/29 16:11:08;;;;;;;6.50;4.60;;;;;;;15.54;47.64;95546.06;6096857;23;20161;-84
2023/03/29 16:13:33;;;;;;;8.43;3.27;;;;;;;15.47;47.82;95532.09;6075806;23;20159;-85
2023/03/29 16:16:20;;;;;;;2.50;1.73;;;;;;;15.56;47.79;95540.69;6072654;23;20676;-85
2023/03/29 16:18:47;;;;;;;6.40;1.73;;;;;;;15.42;47.58;95546.69;6073563;23;20180;-86
2023/03/29 16:21:26;;;;;;;3.38;1.52;;;;;;;15.41;47.56;95538.03;6072919;23;20181;-85
2023/03/29 16:23:57;;;;;;;3.07;1.40;;;;;;;15.33;47.76;95538.09;6097152;23;20590;-86
2023/03/29 16:26:26;;;;;;;3.60;1.63;;;;;;;15.29;47.47;95532.44;6099286;23;20141;-85
2023/03/29 16:28:56;;;;;;;4.80;2.13;;;;;;;15.30;47.63;95533.25;6097293;23;20180;-86
2023/03/29 16:31:24;;;;;;;3.03;1.30;;;;;;;15.30;47.92;95534.03;6075861;23;20210;-85
2023/03/29 16:33:50;;;;;;;3.87;1.80;;;;;;;15.22;48.21;95521.03;6098402;23;20188;-86
2023/03/29 16:36:25;;;;;;;4.17;1.57;;;;;;;15.19;48.36;95523.16;6097111;23;20164;-85
2023/03/29 16:38:50;;;;;;;1.47;1.37;;;;;;;15.15;48.81;95514.88;6098134;23;20184;-87
2023/03/29 16:41:25;;;;;;;8.07;2.55;;;;;;;15.00;49.33;95516.63;6097982;23;20236;-85
2023/03/29 16:43:54;;;;;;;5.53;2.40;;;;;;;14.90;49.30;95519.47;6073720;23;20169;-85
2023/03/29 16:46:26;;;;;;;10.50;2.10;;;;;;;14.81;48.78;95512.69;6096275;23;20168;-85
2023/03/29 16:49:00;;;;;;;3.63;2.90;;;;;;;14.80;49.75;95499.78;6073502;23;20507;-86
2023/03/29 16:51:45;;;;;;;6.03;4.17;;;;;;;14.68;51.04;95502.00;6097346;23;20167;-84
2023/03/29 16:54:12;;;;;;;3.83;1.63;;;;;;;14.50;50.76;95504.91;6097915;23;20172;-85
2023/03/29 16:56:39;;;;;;;4.37;1.40;;;;;;;14.40;51.16;95510.31;6048640;23;20169;-85
2023/03/29 16:59:11;;;;;;;2.47;1.30;;;;;;;14.38;50.62;95511.44;6097942;23;20180;-86
2023/03/29 17:01:45;;;;;;;4.07;1.37;;;;;;;14.30;51.55;95508.88;6097192;23;20193;-85
2023/03/29 17:04:13;;;;;;;4.57;1.20;;;;;;;14.27;51.37;95509.22;6097302;23;20148;-86
2023/03/29 17:06:45;;;;;;;3.67;1.47;;;;;;;14.27;50.84;95506.63;6097181;23;20177;-85
2023/03/29 17:09:13;;;;;;;3.47;1.50;;;;;;;14.26;50.34;95505.00;6097658;23;20200;-85
2023/03/29 17:11:38;;;;;;;5.23;1.67;;;;;;;14.22;50.67;95491.44;6097158;23;20157;-86
2023/03/29 17:14:06;;;;;;;3.27;1.47;;;;;;;14.18;50.38;95496.22;6097799;23;20212;-85
2023/03/29 17:16:32;;;;;;;3.27;1.60;;;;;;;14.22;49.96;95499.28;6073735;23;20160;-85
2023/03/29 17:19:00;;;;;;;4.33;2.07;;;;;;;14.20;50.53;95487.38;6098695;23;20189;-88
2023/03/29 17:21:31;;;;;;;4.93;3.47;;;;;;;14.15;50.50;95480.09;6097189;23;20184;-86
2023/03/29 17:23:56;;;;;;;5.77;3.47;;;;;;;14.04;51.59;95483.88;6074716;23;20196;-87
2023/03/29 17:26:24;;;;;;;6.33;3.67;;;;;;;13.97;51.24;95482.13;6098104;23;20161;-86
2023/03/29 17:29:01;;;;;;;7.77;4.27;;;;;;;13.98;51.03;95491.59;6073706;23;20176;-85
2023/03/29 17:31:29;;;;;;;7.23;4.87;;;;;;;13.84;51.48;95490.47;6075104;23;20905;-85
2023/03/29 17:34:00;;;;;;;4.07;3.17;;;;;;;13.79;51.51;95488.41;6099383;23;20216;-85
2023/03/29 17:36:32;;;;;;;6.87;3.60;;;;;;;13.70;51.58;95480.75;6051782;23;20208;-87
2023/03/29 17:39:05;;;;;;;5.03;3.03;;;;;;;13.61;51.61;95482.59;6051981;23;20271;-86
2023/03/29 17:41:46;;;;;;;7.93;5.27;;;;;;;13.64;51.39;95484.84;6100024;23;20234;-86
2023/03/29 17:44:13;;;;;;;9.73;8.30;;;;;;;13.64;50.81;95478.81;6075779;23;20170;-84
2023/03/29 17:46:42;;;;;;;7.67;6.20;;;;;;;13.57;50.52;95486.50;6075518;23;20165;-85
2023/03/29 17:49:08;;;;;;;6.47;4.73;;;;;;;13.60;50.14;95478.31;6100023;23;20203;-84
2023/03/29 17:51:45;;;;;;;8.23;5.80;;;;;;;13.57;49.96;95491.72;6078597;23;20156;-87
2023/03/29 17:54:13;;;;;;;6.00;4.33;;;;;;;13.58;49.99;95488.13;6121986;23;20160;-86
2023/03/29 17:56:41;;;;;;;6.67;3.17;;;;;;;13.60;49.90;95484.38;6121800;23;20137;-85
2023/03/29 17:59:12;;;;;;;3.63;2.47;;;;;;;13.54;49.94;95495.47;6121978;23;20204;-87
2023/03/29 18:01:39;;;;;;;5.17;2.10;;;;;;;13.49;50.12;95492.53;6120557;23;20184;-89
2023/03/29 18:04:08;;;;;;;4.37;2.30;;;;;;;13.51;49.88;95487.16;6122467;23;20129;-90
2023/03/29 18:06:34;;;;;;;3.23;2.43;;;;;;;13.46;50.07;95495.50;6097773;23;20149;-90
2023/03/29 18:09:02;;;;;;;5.23;2.30;;;;;;;13.37;50.60;95504.31;6096485;23;20199;-86
2023/03/29 18:11:38;;;;;;;5.50;2.10;;;;;;;13.39;50.19;95493.72;6105337;23;20161;-87
2023/03/29 18:14:16;;;;;;;6.83;2.07;;;;;;;13.35;50.86;95497.66;6076838;23;20154;-84
2023/03/29 18:16:50;;;;;;;4.57;2.07;;;;;;;13.30;50.52;95498.94;6074646;23;20185;-84
2023/03/29 18:19:15;;;;;;;5.37;3.97;;;;;;;13.29;50.43;95499.94;6074233;23;20173;-85
2023/03/29 18:21:43;;;;;;;6.33;3.87;;;;;;;13.32;50.49;95493.56;6098104;23;20204;-85
2023/03/29 18:24:17;;;;;;;7.60;4.17;;;;;;;13.32;50.63;95488.34;6073384;23;20176;-84
2023/03/29 18:26:45;;;;;;;6.87;4.70;;;;;;;13.29;50.60;95492.09;6097257;23;20149;-85
2023/03/29 18:29:53;;;;;;;10.23;6.27;;;;;;;13.25;50.82;95492.59;6074912;23;20180;-85
2023/03/29 18:32:45;;;;;;;9.93;7.10;;;;;;;13.18;50.93;95487.19;6096552;23;20167;-86
2023/03/29 18:35:39;;;;;;;8.20;5.83;;;;;;;13.09;51.26;95482.97;6072111;23;20160;-85
2023/03/29 18:42:43;;;;;;;5.10;2.97;;;;;;;12.93;51.93;95489.00;6010741;23;20360;-86
2023/03/29 18:45:10;;;;;;;;;;;;;;;;;;;;;
2023/03/29 18:47:45;;;;;;;6.07;3.00;;;;;;;12.78;52.35;95475.00;5991347;23;20250;-85
2023/03/29 18:50:17;;;;;;;7.10;2.93;;;;;;;12.82;52.32;95478.91;5987435;23;20150;-85
2023/03/29 18:52:45;;;;;;;6.83;2.90;;;;;;;12.83;52.47;95477.13;5964395;23;20171;-85
2023/03/29 18:55:19;;;;;;;6.00;2.83;;;;;;;12.80;52.59;95483.44;5985737;23;20167;-85
2023/03/29 18:57:52;;;;;;;5.73;3.60;;;;;;;12.80;52.72;95480.03;5990302;23;20282;-86
2023/03/29 19:00:29;;;;;;;6.20;4.60;;;;;;;12.70;52.89;95488.00;6046715;23;20204;-85
2023/03/29 19:03:02;;;;;;;8.67;4.50;;;;;;;12.66;52.91;95492.75;6024372;23;20149;-86
2023/03/29 19:05:54;;;;;;;5.23;4.30;;;;;;;12.58;53.51;95489.31;6046335;23;20585;-85
2023/03/29 19:08:20;;;;;;;5.00;3.60;;;;;;;12.51;54.19;95489.13;6056500;23;20507;-86
2023/03/29 19:10:45;;;;;;;10.13;4.57;;;;;;;12.51;54.56;95493.53;6100007;23;20156;-86
2023/03/29 19:13:14;;;;;;;8.60;6.50;;;;;;;12.45;54.79;95487.16;6101067;23;20169;-85
2023/03/29 19:15:46;;;;;;;8.20;5.97;;;;;;;12.51;54.75;95498.75;6077199;23;20245;-86
2023/03/29 19:18:15;;;;;;;13.70;6.47;;;;;;;12.45;55.03;95489.78;6101815;23;20180;-85
2023/03/29 19:20:51;;;;;;;10.90;6.60;;;;;;;12.41;55.20;95488.47;6099331;23;20251;-85
2023/03/29 19:23:27;;;;;;;7.43;4.07;;;;;;;12.40;55.13;95487.66;6076751;23;20156;-86
2023/03/29 19:26:16;;;;;;;5.57;3.43;;;;;;;12.37;55.39;95481.97;6075298;23;20164;-84
2023/03/29 19:28:41;;;;;;;6.17;3.43;;;;;;;12.31;55.70;95472.19;6075341;23;20179;-85
2023/03/29 19:31:10;;;;;;;4.50;2.70;;;;;;;12.29;55.88;95474.13;6100229;23;20156;-85
2023/03/29 19:33:36;;;;;;;7.00;2.63;;;;;;;12.35;55.47;95468.28;6074915;23;20144;-85
2023/03/29 19:36:05;;;;;;;7.03;2.03;;;;;;;12.28;55.53;95462.91;6073502;23;20167;-85
2023/03/29 19:38:39;;;;;;;5.27;2.10;;;;;;;12.35;54.97;95463.06;6086923;23;20173;-86
2023/03/29 19:41:08;;;;;;;5.47;2.20;;;;;;;12.40;54.88;95450.38;6122093;23;20220;-88
2023/03/29 19:43:48;;;;;;;2.90;2.10;;;;;;;12.41;54.90;95446.81;6124424;23;20226;-90
2023/03/29 19:46:24;;;;;;;9.10;2.30;;;;;;;12.44;54.94;95442.06;6121181;23;20149;-90
2023/03/29 19:48:54;;;;;;;5.37;2.20;;;;;;;12.43;54.64;95432.63;6110148;23;20188;-85
2023/03/29 19:51:35;;;;;;;8.37;2.70;;;;;;;12.40;54.56;95429.56;6101804;23;20153;-85
2023/03/29 19:54:05;;;;;;;2.87;1.90;;;;;;;12.48;53.93;95426.97;6054458;23;20149;-86
2023/03/29 19:56:31;;;;;;;7.87;1.93;;;;;;;12.51;53.20;95428.41;6098888;23;20160;-85
2023/03/29 19:59:00;;;;;;;3.00;1.93;;;;;;;12.57;53.18;95417.34;6072859;23;20240;-86
2023/03/29 20:01:35;;;;;;;5.03;2.10;;;;;;;12.55;53.28;95412.31;6072288;23;20239;-85
2023/03/29 20:04:04;;;;;;;6.43;2.57;;;;;;;12.55;53.41;95420.13;6096548;23;20630;-87
2023/03/29 20:06:29;;;;;;;3.47;1.73;;;;;;;12.42;53.58;95412.78;6048553;23;20157;-86
2023/03/29 20:08:55;;;;;;;7.00;2.07;;;;;;;12.47;53.29;95402.72;6073030;23;20181;-85
2023/03/29 20:11:23;;;;;;;5.17;2.07;;;;;;;12.53;52.78;95397.81;6096132;23;20758;-85
2023/03/29 20:13:51;;;;;;;3.43;1.80;;;;;;;12.51;52.02;95395.38;6096961;23;20161;-85
2023/03/29 20:16:17;;;;;;;7.90;2.50;;;;;;;12.60;51.43;95397.00;6072420;23;20231;-84
2023/03/29 20:18:44;;;;;;;8.93;1.73;;;;;;;12.61;51.17;95398.63;6072820;23;20231;-85
2023/03/29 20:21:12;;;;;;;4.70;1.60;;;;;;;12.72;49.91;95400.06;6073962;23;20193;-86
2023/03/29 20:23:41;;;;;;;10.70;2.10;;;;;;;12.72;49.62;95398.31;6096504;23;20165;-84
2023/03/29 20:26:09;;;;;;;8.40;2.13;;;;;;;12.84;49.34;95392.75;6073372;23;20184;-84
2023/03/29 20:28:36;;;;;;;5.87;1.97;;;;;;;12.94;48.97;95393.38;6071045;23;20268;-85
2023/03/29 20:31:06;;;;;;;7.40;1.90;;;;;;;12.99;49.20;95388.50;6073012;23;20149;-85
2023/03/29 20:33:32;;;;;;;4.10;1.70;;;;;;;13.05;48.93;95382.59;6097219;23;20235;-84
2023/03/29 20:35:57;;;;;;;4.73;2.17;;;;;;;12.97;48.84;95387.81;6072350;23;20220;-85
2023/03/29 20:38:22;;;;;;;6.77;2.00;;;;;;;13.14;48.78;95380.78;6097017;23;20244;-85
2023/03/29 20:40:48;;;;;;;5.23;1.97;;;;;;;13.14;48.69;95372.97;6073894;23;20239;-86
2023/03/29 20:43:17;;;;;;;4.67;1.60;;;;;;;13.06;48.99;95363.38;6096910;23;20277;-84
2023/03/29 20:45:43;;;;;;;10.27;2.00;;;;;;;13.07;49.02;95367.59;6098631;23;20495;-87
2023/03/29 20:48:10;;;;;;;6.10;1.93;;;;;;;13.06;48.92;95365.97;6073813;23;20185;-85
2023/03/29 20:50:39;;;;;;;6.83;1.80;;;;;;;13.13;49.01;95364.34;6072034;23;20164;-85
2023/03/29 20:53:05;;;;;;;7.53;1.83;;;;;;;13.13;48.79;95359.13;6073004;23;20224;-86
2023/03/29 20:55:32;;;;;;;7.93;1.80;;;;;;;13.17;48.92;95355.22;6048131;23;20624;-85
2023/03/29 20:57:58;;;;;;;5.73;1.87;;;;;;;13.24;48.98;95357.97;6048651;23;20636;-86
2023/03/29 21:00:26;;;;;;;9.03;1.70;;;;;;;13.24;48.74;95361.38;6049321;23;20161;-85
2023/03/29 21:02:53;;;;;;;7.20;2.33;;;;;;;13.25;48.64;95357.81;6048454;23;20527;-87
2023/03/29 21:05:19;;;;;;;9.70;2.30;;;;;;;13.30;48.85;95347.69;6047893;23;20182;-87
2023/03/29 21:07:46;;;;;;;7.93;2.27;;;;;;;13.26;48.75;95351.63;6071937;23;20165;-85
2023/03/29 21:10:12;;;;;;;4.43;1.83;;;;;;;13.46;48.31;95344.19;6072952;23;20594;-84
2023/03/29 21:12:38;;;;;;;7.27;2.10;;;;;;;13.48;48.34;95329.19;6072366;23;20145;-85
2023/03/29 21:15:05;;;;;;;5.37;2.10;;;;;;;13.50;48.51;95329.00;6071495;23;20191;-85
2023/03/29 21:17:32;;;;;;;9.20;2.73;;;;;;;13.51;48.73;95322.81;6072171;23;20156;-84
2023/03/29 21:19:57;;;;;;;4.83;1.70;;;;;;;13.60;48.52;95329.59;6072065;23;20164;-84
2023/03/29 21:22:23;;;;;;;5.90;1.97;;;;;;;13.69;48.55;95319.94;6071759;23;20184;-84
2023/03/29 21:24:49;;;;;;;6.80;2.00;;;;;;;13.60;48.70;95320.00;6071416;23;20632;-86
2023/03/29 21:27:14;;;;;;;7.70;2.53;;;;;;;13.72;48.45;95315.19;6072155;23;20502;-85
2023/03/29 21:29:40;;;;;;;10.70;2.30;;;;;;;13.72;48.33;95309.97;6072102;23;20176;-84
2023/03/29 21:32:05;;;;;;;7.07;3.07;;;;;;;13.78;48.62;95304.09;6071858;23;20592;-85
2023/03/29 21:34:30;;;;;;;11.80;2.63;;;;;;;13.72;48.89;95306.56;6071917;23;20161;-85
2023/03/29 21:36:56;;;;;;;12.80;2.70;;;;;;;13.71;48.90;95303.16;6072086;23;20163;-85
2023/03/29 21:39:24;;;;;;;6.17;1.97;;;;;;;13.68;49.07;95300.84;6072358;23;20643;-84
2023/03/29 21:41:50;;;;;;;9.20;2.40;;;;;;;13.76;48.99;95292.97;6071896;23;20188;-85
2023/03/29 21:44:15;;;;;;;10.10;3.23;;;;;;;13.79;49.23;95294.47;6072412;23;20159;-85
2023/03/29 21:46:40;;;;;;;5.63;1.87;;;;;;;13.81;49.17;95288.06;6071329;23;20160;-84
2023/03/29 21:49:06;;;;;;;8.63;2.40;;;;;;;13.82;48.90;95297.53;6071360;23;20548;-83
2023/03/29 21:51:31;;;;;;;8.07;2.70;;;;;;;13.91;48.99;95293.06;6072164;23;20157;-84
2023/03/29 21:53:57;;;;;;;13.10;2.77;;;;;;;13.95;49.15;95285.69;6072483;23;20164;-83
2023/03/29 21:56:22;;;;;;;5.67;2.17;;;;;;;14.06;49.09;95287.91;6070915;23;20645;-88
2023/03/29 21:58:47;;;;;;;7.53;2.20;;;;;;;14.08;48.70;95281.50;6071923;23;20523;-86
2023/03/29 22:01:13;;;;;;;8.60;2.10;;;;;;;14.12;48.75;95290.59;6072891;23;20666;-85
2023/03/29 22:03:38;;;;;;;9.90;2.70;;;;;;;14.14;49.27;95280.00;6073761;23;20167;-85
2023/03/29 22:06:08;;;;;;;8.20;2.30;;;;;;;14.16;49.05;95286.66;6073011;23;20164;-86
2023/03/29 22:08:33;;;;;;;8.27;2.90;;;;;;;14.19;48.95;95290.72;6074379;23;20213;-85
2023/03/29 22:11:21;;;;;;;4.27;2.10;;;;;;;14.15;49.17;95286.84;6074285;23;20667;-87
2023/03/29 22:13:47;;;;;;;8.90;2.57;;;;;;;14.24;49.30;95298.84;6073913;23;20165;-84
2023/03/29 22:16:12;;;;;;;10.43;2.63;;;;;;;14.25;49.18;95292.63;6072384;23;20168;-86